createdAt,value
2019-02-17T00:02:28.352Z,5.69
2019-02-17T00:04:59.967Z,5.69
2019-02-17T00:07:31.864Z,5.73
2019-02-17T00:10:03.556Z,5.76
2019-02-17T00:12:35.297Z,5.76
2019-02-17T00:15:11.279Z,5.78
2019-02-17T00:17:43.105Z,5.83
2019-02-17T00:20:14.731Z,5.87
2019-02-17T00:22:47.579Z,5.91
2019-02-17T00:25:20.457Z,5.96
2019-02-17T00:27:52.374Z,6.00
2019-02-17T00:30:24.184Z,6.04
2019-02-17T00:32:56.613Z,6.05
2019-02-17T00:35:29.934Z,5.97
2019-02-17T00:38:01.605Z,5.91
2019-02-17T00:40:33.298Z,5.84
2019-02-17T00:43:05.055Z,5.78
2019-02-17T00:45:36.661Z,5.70
2019-02-17T00:48:08.501Z,5.63
2019-02-17T00:50:40.342Z,5.54
2019-02-17T00:53:13.811Z,5.51
2019-02-17T00:55:49.598Z,5.51
2019-02-17T00:58:33.259Z,5.48
2019-02-17T01:01:09.256Z,5.44
2019-02-17T01:03:41.227Z,5.41
2019-02-17T01:06:13.625Z,5.40
2019-02-17T01:08:45.403Z,5.43
2019-02-17T01:11:17.086Z,5.46
2019-02-17T01:13:48.978Z,5.50
2019-02-17T01:16:20.870Z,5.52
2019-02-17T01:18:52.624Z,5.57
2019-02-17T01:21:24.262Z,5.61
2019-02-17T01:23:56.155Z,5.59
2019-02-17T01:26:27.796Z,5.58
2019-02-17T01:28:59.400Z,5.57
2019-02-17T01:31:32.196Z,5.58
2019-02-17T01:34:11.550Z,5.60
2019-02-17T01:36:43.534Z,5.64
2019-02-17T01:39:15.930Z,5.63
2019-02-17T01:41:47.856Z,5.58
2019-02-17T01:44:19.520Z,5.50
2019-02-17T01:46:51.124Z,5.43
2019-02-17T01:49:22.843Z,5.31
2019-02-17T01:51:54.438Z,5.19
2019-02-17T01:54:26.169Z,5.05
2019-02-17T01:56:57.875Z,4.99
2019-02-17T01:59:30.821Z,4.97
2019-02-17T02:02:03.041Z,4.96
2019-02-17T02:04:34.735Z,5.00
2019-02-17T02:07:09.270Z,5.03
2019-02-17T02:09:41.786Z,5.05
2019-02-17T02:12:13.433Z,5.06
2019-02-17T02:14:45.080Z,5.12
2019-02-17T02:17:17.287Z,5.13
2019-02-17T02:19:49.461Z,5.08
2019-02-17T02:22:21.338Z,5.05
2019-02-17T02:24:53.337Z,5.07
2019-02-17T02:27:26.848Z,5.11
2019-02-17T02:30:00.358Z,5.13
2019-02-17T02:32:32.243Z,5.12
2019-02-17T02:35:04.165Z,5.09
2019-02-17T02:37:35.943Z,5.05
2019-02-17T02:40:08.043Z,4.98
2019-02-17T02:42:40.042Z,4.91
2019-02-17T02:45:12.170Z,4.82
2019-02-17T02:47:43.957Z,4.76
2019-02-17T02:50:15.568Z,4.75
2019-02-17T02:52:47.267Z,4.77
2019-02-17T02:55:18.884Z,4.79
2019-02-17T02:57:50.611Z,4.78
2019-02-17T03:00:22.201Z,4.77
2019-02-17T03:02:53.820Z,4.78
2019-02-17T03:05:25.649Z,4.76
2019-02-17T03:07:58.019Z,4.69
2019-02-17T03:10:29.674Z,4.59
2019-02-17T03:13:01.405Z,4.50
2019-02-17T03:15:33.247Z,4.40
2019-02-17T03:18:04.882Z,4.30
2019-02-17T03:20:36.570Z,4.28
2019-02-17T03:23:08.203Z,4.30
2019-02-17T03:25:40.002Z,4.32
2019-02-17T03:28:13.028Z,4.37
2019-02-17T03:30:44.650Z,4.40
2019-02-17T03:33:16.375Z,4.42
2019-02-17T03:35:48.035Z,4.46
2019-02-17T03:38:19.663Z,4.49
2019-02-17T03:40:51.358Z,4.50
2019-02-17T03:43:23.227Z,4.48
2019-02-17T03:45:55.124Z,4.43
2019-02-17T03:48:26.717Z,4.39
2019-02-17T03:50:58.343Z,4.36
2019-02-17T03:53:29.963Z,4.35
2019-02-17T03:56:01.563Z,4.38
2019-02-17T03:58:33.363Z,4.43
2019-02-17T04:01:04.974Z,4.50
2019-02-17T04:03:36.630Z,4.51
2019-02-17T04:06:08.259Z,4.47
2019-02-17T04:08:39.913Z,4.41
2019-02-17T04:11:11.663Z,4.35
2019-02-17T04:13:43.467Z,4.30
2019-02-17T04:16:15.648Z,4.26
2019-02-17T04:18:47.405Z,4.27
2019-02-17T04:21:20.331Z,4.30
2019-02-17T04:23:51.932Z,4.31
2019-02-17T04:26:23.543Z,4.29
2019-02-17T04:28:55.144Z,4.25
2019-02-17T04:31:26.958Z,4.20
2019-02-17T04:33:58.618Z,4.15
2019-02-17T04:36:31.262Z,4.11
2019-02-17T04:39:04.014Z,4.09
2019-02-17T04:41:35.640Z,4.11
2019-02-17T04:44:08.835Z,4.14
2019-02-17T04:46:40.860Z,4.13
2019-02-17T04:49:12.483Z,4.13
2019-02-17T04:51:44.099Z,4.06
2019-02-17T04:54:15.748Z,3.94
2019-02-17T04:56:47.419Z,3.84
2019-02-17T04:59:19.069Z,3.76
2019-02-17T05:01:50.816Z,3.73
2019-02-17T05:04:22.443Z,3.76
2019-02-17T05:06:54.119Z,3.83
2019-02-17T05:09:26.015Z,3.87
2019-02-17T05:11:57.874Z,3.90
2019-02-17T05:14:29.537Z,3.89
2019-02-17T05:17:02.327Z,3.92
2019-02-17T05:19:33.915Z,3.94
2019-02-17T05:22:05.905Z,3.92
2019-02-17T05:24:37.550Z,3.89
2019-02-17T05:27:09.226Z,3.87
2019-02-17T05:29:41.231Z,3.86
2019-02-17T05:32:13.067Z,3.85
2019-02-17T05:34:44.678Z,3.89
2019-02-17T05:37:16.382Z,3.94
2019-02-17T05:39:48.285Z,3.97
2019-02-17T05:42:20.092Z,3.98
2019-02-17T05:44:52.228Z,3.99
2019-02-17T05:47:24.251Z,3.96
2019-02-17T05:49:56.114Z,3.92
2019-02-17T05:52:27.829Z,3.89
2019-02-17T05:54:59.439Z,3.86
2019-02-17T05:57:31.235Z,3.87
2019-02-17T06:00:03.294Z,3.89
2019-02-17T06:02:35.107Z,3.95
2019-02-17T06:05:07.480Z,4.01
2019-02-17T06:07:39.119Z,4.06
2019-02-17T06:10:10.957Z,4.09
2019-02-17T06:12:43.370Z,4.13
2019-02-17T06:15:15.702Z,4.17
2019-02-17T06:17:47.361Z,4.20
2019-02-17T06:20:20.938Z,4.21
2019-02-17T06:22:54.340Z,4.24
2019-02-17T06:25:25.955Z,4.23
2019-02-17T06:27:57.546Z,4.24
2019-02-17T06:30:29.176Z,4.25
2019-02-17T06:33:01.142Z,4.26
2019-02-17T06:35:32.914Z,4.24
2019-02-17T06:38:04.662Z,4.14
2019-02-17T06:40:36.562Z,4.05
2019-02-17T06:43:08.221Z,4.04
2019-02-17T06:45:39.862Z,4.01
2019-02-17T06:48:11.627Z,3.95
2019-02-17T06:50:43.992Z,3.92
2019-02-17T06:53:16.528Z,3.96
2019-02-17T06:56:01.973Z,4.00
2019-02-17T06:58:33.631Z,3.97
2019-02-17T07:01:05.565Z,3.98
2019-02-17T07:03:37.180Z,3.93
2019-02-17T07:06:20.893Z,3.85
2019-02-17T07:08:52.608Z,3.74
2019-02-17T07:11:24.248Z,3.69
2019-02-17T07:13:56.002Z,3.61
2019-02-17T07:16:28.411Z,3.59
2019-02-17T07:19:00.183Z,3.60
2019-02-17T07:21:32.196Z,3.63
2019-02-17T07:24:05.691Z,3.67
2019-02-17T07:26:37.594Z,3.75
2019-02-17T07:29:09.326Z,3.86
2019-02-17T07:31:41.118Z,3.94
2019-02-17T07:34:13.071Z,4.02
2019-02-17T07:36:44.874Z,4.07
2019-02-17T07:39:17.600Z,4.11
2019-02-17T07:41:49.400Z,4.14
2019-02-17T07:44:21.284Z,4.19
2019-02-17T07:46:53.015Z,4.28
2019-02-17T07:49:26.198Z,4.36
2019-02-17T07:51:59.285Z,4.39
2019-02-17T07:54:30.905Z,4.42
2019-02-17T07:57:02.689Z,4.47
2019-02-17T07:59:34.545Z,4.54
2019-02-17T08:02:06.222Z,4.64
2019-02-17T08:04:37.870Z,4.76
2019-02-17T08:07:09.730Z,4.83
2019-02-17T08:09:41.459Z,4.90
2019-02-17T08:12:13.372Z,4.99
2019-02-17T08:14:45.039Z,5.09
2019-02-17T08:17:17.691Z,5.20
2019-02-17T08:19:49.400Z,5.28
2019-02-17T08:22:21.458Z,5.39
2019-02-17T08:24:54.209Z,5.51
2019-02-17T08:27:26.033Z,5.65
2019-02-17T08:29:57.673Z,5.79
2019-02-17T08:32:29.345Z,5.95
2019-02-17T08:35:02.336Z,6.10
2019-02-17T08:37:34.662Z,6.23
2019-02-17T08:40:07.227Z,6.38
2019-02-17T08:42:38.995Z,6.53
2019-02-17T08:45:11.442Z,6.67
2019-02-17T08:47:46.311Z,6.78
2019-02-17T08:50:21.454Z,6.94
2019-02-17T08:52:57.099Z,7.09
2019-02-17T08:55:29.150Z,7.24
2019-02-17T08:58:00.884Z,7.39
2019-02-17T09:00:32.664Z,7.54
2019-02-17T09:03:04.376Z,7.68
2019-02-17T09:05:43.808Z,7.83
2019-02-17T09:08:10.239Z,7.97
2019-02-17T09:10:42.230Z,8.14
2019-02-17T09:13:13.946Z,8.28
2019-02-17T09:15:45.881Z,8.42
2019-02-17T09:18:19.484Z,8.56
2019-02-17T09:20:51.192Z,8.69
2019-02-17T09:23:23.006Z,8.81
2019-02-17T09:25:54.857Z,8.93
2019-02-17T09:28:26.509Z,9.04
2019-02-17T09:30:58.217Z,9.13
2019-02-17T09:33:29.879Z,9.24
2019-02-17T09:36:01.641Z,9.36
2019-02-17T09:38:33.283Z,9.45
2019-02-17T09:41:05.478Z,9.54
2019-02-17T09:43:37.537Z,9.64
2019-02-17T09:46:09.263Z,9.72
2019-02-17T09:48:41.059Z,9.83
2019-02-17T09:51:12.810Z,9.92
2019-02-17T09:53:44.630Z,10.02
2019-02-17T09:56:16.589Z,10.12
2019-02-17T09:58:48.366Z,10.22
2019-02-17T10:01:20.222Z,10.32
2019-02-17T10:03:51.911Z,10.41
2019-02-17T10:06:23.832Z,10.51
2019-02-17T10:08:55.620Z,10.58
2019-02-17T10:11:27.428Z,10.67
2019-02-17T10:14:11.390Z,10.75
2019-02-17T10:16:45.916Z,10.82
2019-02-17T10:19:17.623Z,10.90
2019-02-17T10:21:49.325Z,10.99
2019-02-17T10:24:21.050Z,11.10
2019-02-17T10:26:52.841Z,11.20
2019-02-17T10:29:24.809Z,11.28
2019-02-17T10:31:56.524Z,11.37
2019-02-17T10:34:28.240Z,11.44
2019-02-17T10:36:59.989Z,11.52
2019-02-17T10:39:31.746Z,11.58
2019-02-17T10:42:03.883Z,11.67
2019-02-17T10:44:35.546Z,11.73
2019-02-17T10:47:07.518Z,11.80
2019-02-17T10:49:41.994Z,11.84
2019-02-17T10:52:13.830Z,11.90
2019-02-17T10:54:45.574Z,11.97
2019-02-17T10:57:17.618Z,12.01
2019-02-17T10:59:49.414Z,12.10
2019-02-17T11:02:21.169Z,12.19
2019-02-17T11:04:52.924Z,12.27
2019-02-17T11:07:24.623Z,12.33
2019-02-17T11:09:56.359Z,12.41
2019-02-17T11:12:28.342Z,12.47
2019-02-17T11:15:00.041Z,12.54
2019-02-17T11:17:32.579Z,12.62
2019-02-17T11:20:04.640Z,12.69
2019-02-17T11:22:36.350Z,12.77
2019-02-17T11:25:08.475Z,12.83
2019-02-17T11:27:40.671Z,12.90
2019-02-17T11:30:14.494Z,12.98
2019-02-17T11:32:46.311Z,13.05
2019-02-17T11:35:18.003Z,13.11
2019-02-17T11:37:49.697Z,13.20
2019-02-17T11:40:21.412Z,13.25
2019-02-17T11:42:53.169Z,13.30
2019-02-17T11:45:24.987Z,13.37
2019-02-17T11:47:56.683Z,13.44
2019-02-17T11:50:28.461Z,13.51
2019-02-17T11:53:00.251Z,13.58
2019-02-17T11:55:31.984Z,13.64
2019-02-17T11:58:03.658Z,13.70
2019-02-17T12:00:35.531Z,13.75
2019-02-17T12:03:08.460Z,13.80
2019-02-17T12:05:40.478Z,13.86
2019-02-17T12:08:12.725Z,13.91
2019-02-17T12:10:44.725Z,13.97
2019-02-17T12:13:16.457Z,14.04
2019-02-17T12:15:49.189Z,14.09
2019-02-17T12:18:21.141Z,14.14
2019-02-17T12:21:09.314Z,14.18
2019-02-17T12:23:44.138Z,14.25
2019-02-17T12:26:27.322Z,14.29
2019-02-17T12:29:07.327Z,14.34
2019-02-17T12:31:40.037Z,14.40
2019-02-17T12:34:11.782Z,14.46
2019-02-17T12:36:43.585Z,14.52
2019-02-17T12:39:16.263Z,14.59
2019-02-17T12:41:48.043Z,14.63
2019-02-17T12:44:19.772Z,14.67
2019-02-17T12:46:51.652Z,14.74
2019-02-17T12:49:23.360Z,14.81
2019-02-17T12:51:55.268Z,14.87
2019-02-17T12:54:29.418Z,14.92
2019-02-17T12:57:00.624Z,14.98
2019-02-17T12:59:32.754Z,15.04
2019-02-17T13:02:04.762Z,15.09
2019-02-17T13:04:36.562Z,15.13
2019-02-17T13:07:08.414Z,15.18
2019-02-17T13:09:40.258Z,15.21
2019-02-17T13:12:12.016Z,15.26
2019-02-17T13:14:44.955Z,15.32
2019-02-17T13:17:17.162Z,15.37
2019-02-17T13:19:49.063Z,15.41
2019-02-17T13:22:20.887Z,15.44
2019-02-17T13:24:52.607Z,15.48
2019-02-17T13:27:24.677Z,15.52
2019-02-17T13:29:56.405Z,15.54
2019-02-17T13:32:28.370Z,15.54
2019-02-17T13:35:00.103Z,15.57
2019-02-17T13:37:32.039Z,15.59
2019-02-17T13:40:04.025Z,15.62
2019-02-17T13:42:35.806Z,15.64
2019-02-17T13:45:08.896Z,15.68
2019-02-17T13:47:40.611Z,15.71
2019-02-17T13:50:13.782Z,15.72
2019-02-17T13:52:45.554Z,15.75
2019-02-17T13:55:17.257Z,15.77
2019-02-17T13:57:49.003Z,15.79
2019-02-17T14:00:20.940Z,15.82
2019-02-17T14:02:53.974Z,15.84
2019-02-17T14:05:25.883Z,15.85
2019-02-17T14:07:57.820Z,15.90
2019-02-17T14:10:29.506Z,15.96
2019-02-17T14:13:01.263Z,15.99
2019-02-17T14:15:32.370Z,16.04
2019-02-17T14:18:01.630Z,16.09
2019-02-17T14:20:34.592Z,16.12
2019-02-17T14:23:06.327Z,16.15
2019-02-17T14:25:38.005Z,16.17
2019-02-17T14:28:09.913Z,16.21
2019-02-17T14:30:41.632Z,16.22
2019-02-17T14:33:13.345Z,16.24
2019-02-17T14:35:45.667Z,16.24
2019-02-17T14:38:17.358Z,16.25
2019-02-17T14:40:49.089Z,16.26
2019-02-17T14:43:20.914Z,16.28
2019-02-17T14:45:52.595Z,16.29
2019-02-17T14:48:24.395Z,16.31
2019-02-17T14:50:56.442Z,16.32
2019-02-17T14:53:28.184Z,16.32
2019-02-17T14:56:00.376Z,16.35
2019-02-17T14:58:32.153Z,16.41
2019-02-17T15:01:04.439Z,16.41
2019-02-17T15:03:36.086Z,16.41
2019-02-17T15:06:07.951Z,16.43
2019-02-17T15:08:39.611Z,16.45
2019-02-17T15:11:11.320Z,16.45
2019-02-17T15:13:43.041Z,16.43
2019-02-17T15:16:15.084Z,16.42
2019-02-17T15:18:47.489Z,16.41
2019-02-17T15:21:19.453Z,16.38
2019-02-17T15:23:51.691Z,16.36
2019-02-17T15:26:23.408Z,16.33
2019-02-17T15:28:55.165Z,16.33
2019-02-17T15:31:26.984Z,16.32
2019-02-17T15:33:59.066Z,16.31
2019-02-17T15:36:32.565Z,16.29
2019-02-17T15:39:05.925Z,16.26
2019-02-17T15:41:37.611Z,16.23
2019-02-17T15:44:09.429Z,16.22
2019-02-17T15:46:41.238Z,16.20
2019-02-17T15:49:12.969Z,16.18
2019-02-17T15:51:45.386Z,16.13
2019-02-17T15:54:18.355Z,16.11
2019-02-17T15:56:50.100Z,16.07
2019-02-17T15:59:21.834Z,16.06
2019-02-17T16:01:53.630Z,16.01
2019-02-17T16:04:28.554Z,15.97
2019-02-17T16:06:59.131Z,15.90
2019-02-17T16:09:31.096Z,15.85
2019-02-17T16:12:03.238Z,15.80
2019-02-17T16:14:35.276Z,15.75
2019-02-17T16:17:07.791Z,15.70
2019-02-17T16:19:39.566Z,15.65
2019-02-17T16:22:11.678Z,15.57
2019-02-17T16:24:43.541Z,15.50
2019-02-17T16:27:15.336Z,15.42
2019-02-17T16:29:47.140Z,15.37
2019-02-17T16:32:19.241Z,15.30
2019-02-17T16:34:51.025Z,15.25
2019-02-17T16:37:24.611Z,15.17
2019-02-17T16:39:56.436Z,15.10
2019-02-17T16:42:28.252Z,15.04
2019-02-17T16:45:00.815Z,14.98
2019-02-17T16:47:32.768Z,14.91
2019-02-17T16:50:05.159Z,14.87
2019-02-17T16:52:38.728Z,14.87
2019-02-17T16:55:11.926Z,14.93
2019-02-17T16:57:44.810Z,14.99
2019-02-17T17:00:24.443Z,15.04
2019-02-17T17:02:56.601Z,15.07
2019-02-17T17:05:28.665Z,15.06
2019-02-17T17:08:01.128Z,15.07
2019-02-17T17:10:33.493Z,15.08
2019-02-17T17:13:05.227Z,15.10
2019-02-17T17:15:37.493Z,15.12
2019-02-17T17:18:10.650Z,15.09
2019-02-17T17:20:42.610Z,15.04
2019-02-17T17:23:14.365Z,14.96
2019-02-17T17:25:46.207Z,14.83
2019-02-17T17:28:18.117Z,14.69
2019-02-17T17:30:49.961Z,14.57
2019-02-17T17:33:21.918Z,14.43
2019-02-17T17:35:53.639Z,14.23
2019-02-17T17:38:25.423Z,13.99
2019-02-17T17:40:57.227Z,13.82
2019-02-17T17:43:29.308Z,13.73
2019-02-17T17:46:01.104Z,13.66
2019-02-17T17:48:32.881Z,13.56
2019-02-17T17:51:04.639Z,13.45
2019-02-17T17:53:36.394Z,13.36
2019-02-17T17:56:08.197Z,13.25
2019-02-17T17:58:40.258Z,13.16
2019-02-17T18:01:13.612Z,13.10
2019-02-17T18:03:45.738Z,13.06
2019-02-17T18:06:17.557Z,12.98
2019-02-17T18:08:49.524Z,12.87
2019-02-17T18:11:21.321Z,12.75
2019-02-17T18:13:53.361Z,12.64
2019-02-17T18:16:25.579Z,12.57
2019-02-17T18:18:57.526Z,12.53
2019-02-17T18:21:29.398Z,12.51
2019-02-17T18:24:01.371Z,12.50
2019-02-17T18:26:33.738Z,12.45
2019-02-17T18:29:05.824Z,12.40
2019-02-17T18:31:37.702Z,12.31
2019-02-17T18:34:10.661Z,12.25
2019-02-17T18:36:42.460Z,12.20
2019-02-17T18:39:14.825Z,12.10
2019-02-17T18:41:46.783Z,12.00
2019-02-17T18:44:19.090Z,11.90
2019-02-17T18:46:50.946Z,11.84
2019-02-17T18:49:22.800Z,11.80
2019-02-17T18:51:54.667Z,11.73
2019-02-17T18:54:26.550Z,11.67
2019-02-17T18:57:07.823Z,11.62
2019-02-17T18:59:32.578Z,11.58
2019-02-17T19:02:04.541Z,11.56
2019-02-17T19:04:36.504Z,11.50
2019-02-17T19:07:08.667Z,11.43
2019-02-17T19:09:41.709Z,11.34
2019-02-17T19:12:13.530Z,11.25
2019-02-17T19:14:46.052Z,11.20
2019-02-17T19:17:18.082Z,11.16
2019-02-17T19:19:50.014Z,11.11
2019-02-17T19:22:21.944Z,11.04
2019-02-17T19:24:54.070Z,10.98
2019-02-17T19:27:25.835Z,10.87
2019-02-17T19:29:57.802Z,10.78
2019-02-17T19:32:29.674Z,10.76
2019-02-17T19:35:01.523Z,10.73
2019-02-17T19:37:33.419Z,10.75
2019-02-17T19:40:05.910Z,10.74
2019-02-17T19:42:38.995Z,10.73
2019-02-17T19:45:12.207Z,10.73
2019-02-17T19:47:44.193Z,10.73
2019-02-17T19:50:15.959Z,10.68
2019-02-17T19:52:47.912Z,10.60
2019-02-17T19:55:20.930Z,10.54
2019-02-17T19:57:53.178Z,10.41
2019-02-17T20:00:27.043Z,10.24
2019-02-17T20:03:18.541Z,10.12
2019-02-17T20:05:56.278Z,10.02
2019-02-17T20:08:28.202Z,9.92
2019-02-17T20:11:00.167Z,9.93
2019-02-17T20:13:32.510Z,9.95
2019-02-17T20:16:05.023Z,9.96
2019-02-17T20:18:36.874Z,9.96
2019-02-17T20:21:08.650Z,9.90
2019-02-17T20:23:42.132Z,9.85
2019-02-17T20:26:14.123Z,9.84
2019-02-17T20:28:46.244Z,9.77
2019-02-17T20:31:18.166Z,9.64
2019-02-17T20:33:51.479Z,9.50
2019-02-17T20:36:25.482Z,9.41
2019-02-17T20:38:57.509Z,9.34
2019-02-17T20:41:29.355Z,9.30
2019-02-17T20:44:01.262Z,9.30
2019-02-17T20:46:34.341Z,9.32
2019-02-17T20:49:06.375Z,9.37
2019-02-17T20:51:38.265Z,9.39
2019-02-17T20:54:10.276Z,9.39
2019-02-17T20:56:42.057Z,9.40
2019-02-17T20:59:13.808Z,9.37
2019-02-17T21:01:46.036Z,9.29
2019-02-17T21:04:17.989Z,9.20
2019-02-17T21:06:51.172Z,9.06
2019-02-17T21:09:23.645Z,8.93
2019-02-17T21:11:55.473Z,8.86
2019-02-17T21:14:27.521Z,8.83
2019-02-17T21:16:59.712Z,8.86
2019-02-17T21:19:31.917Z,8.90
2019-02-17T21:22:03.729Z,8.96
2019-02-17T21:24:35.494Z,8.99
2019-02-17T21:27:07.240Z,9.02
2019-02-17T21:29:40.091Z,9.01
2019-02-17T21:32:11.860Z,8.99
2019-02-17T21:34:43.905Z,8.89
2019-02-17T21:37:15.951Z,8.75
2019-02-17T21:39:48.010Z,8.58
2019-02-17T21:42:19.810Z,8.44
2019-02-17T21:44:52.941Z,8.33
2019-02-17T21:47:24.619Z,8.31
2019-02-17T21:49:56.515Z,8.29
2019-02-17T21:52:28.225Z,8.26
2019-02-17T21:55:00.219Z,8.25
2019-02-17T21:57:32.084Z,8.22
2019-02-17T22:00:04.029Z,8.17
2019-02-17T22:02:35.719Z,8.13
2019-02-17T22:05:07.744Z,8.04
2019-02-17T22:07:40.204Z,7.96
2019-02-17T22:10:14.147Z,7.85
2019-02-17T22:12:46.295Z,7.77
2019-02-17T22:15:18.345Z,7.76
2019-02-17T22:17:50.119Z,7.78
2019-02-17T22:20:21.959Z,7.84
2019-02-17T22:22:53.612Z,7.87
2019-02-17T22:25:29.087Z,7.87
2019-02-17T22:28:00.891Z,7.85
2019-02-17T22:30:32.678Z,7.80
2019-02-17T22:33:04.358Z,7.71
2019-02-17T22:35:35.944Z,7.64
2019-02-17T22:38:07.792Z,7.62
2019-02-17T22:40:39.519Z,7.58
2019-02-17T22:43:11.199Z,7.56
2019-02-17T22:45:44.123Z,7.58
2019-02-17T22:48:15.900Z,7.54
2019-02-17T22:50:47.873Z,7.47
2019-02-17T22:53:19.757Z,7.43
2019-02-17T22:55:51.420Z,7.43
2019-02-17T22:58:23.146Z,7.46
2019-02-17T23:01:05.677Z,7.47
2019-02-17T23:03:37.444Z,7.45
2019-02-17T23:06:09.111Z,7.37
2019-02-17T23:08:40.952Z,7.32
2019-02-17T23:11:12.590Z,7.27
2019-02-17T23:13:44.375Z,7.22
2019-02-17T23:16:16.452Z,7.20
2019-02-17T23:18:48.165Z,7.22
2019-02-17T23:21:19.822Z,7.20
2019-02-17T23:23:51.820Z,7.20
2019-02-17T23:26:23.466Z,7.22
2019-02-17T23:28:55.147Z,7.20
2019-02-17T23:31:26.968Z,7.08
2019-02-17T23:33:58.626Z,6.96
2019-02-17T23:36:30.557Z,6.84
2019-02-17T23:39:03.254Z,6.79
2019-02-17T23:41:34.859Z,6.77
2019-02-17T23:44:06.508Z,6.78
2019-02-17T23:46:38.137Z,6.81
2019-02-17T23:49:11.261Z,6.83
2019-02-17T23:51:42.873Z,6.86
2019-02-17T23:54:14.661Z,6.86
2019-02-17T23:56:46.488Z,6.80
2019-02-17T23:59:18.161Z,6.74
